Kelly, Wyoming
Current Conditions -  °F | °C
As of 7:53 AM on Monday 24 Nov 2014 (Local Time) from KJAC Reporting Station
Overcast Overcast  
Wind Chill: 17°   Ceiling: 4600
Heat Index: 27°   Visibility: 10mi
Dew Point: 14°   Wind: 9mph
Humidity: 59%   Direction: 280°W
Pressure: 30.1"   Gusts: NA
Location:  43.62°N, 110.62°W
Report Text: KJAC 241453Z 28008KT 10SM BKN046 OVC050 M03/M10 A3010
Loading
Personal Weather Stations






























Interactive Weather Map New forecast layout! Learn more

10-Day Weather Forecast

Advertisements
Track Severe Weather on mobile